createdAt,value
2022-10-09T00:00:07.695Z,91.09
2022-10-09T00:01:07.659Z,91.13
2022-10-09T00:02:07.690Z,91.03
2022-10-09T00:03:07.651Z,91.03
2022-10-09T00:04:07.656Z,90.72
2022-10-09T00:05:07.667Z,90.06
2022-10-09T00:06:07.663Z,89.44
2022-10-09T00:07:07.638Z,89.59
2022-10-09T00:08:07.627Z,90.83
2022-10-09T00:09:07.634Z,91.09
2022-10-09T00:10:07.614Z,91.24
2022-10-09T00:11:07.615Z,91.55
2022-10-09T00:12:07.626Z,92.07
2022-10-09T00:13:07.589Z,92.17
2022-10-09T00:14:07.588Z,92.68
2022-10-09T00:15:07.591Z,92.64
2022-10-09T00:16:07.574Z,92.44
2022-10-09T00:17:07.668Z,92.33
2022-10-09T00:18:07.577Z,91.67
2022-10-09T00:19:07.576Z,91.46
2022-10-09T00:20:07.581Z,91.46
2022-10-09T00:21:07.561Z,91.82
2022-10-09T00:22:07.567Z,92.95
2022-10-09T00:23:07.549Z,93.16
2022-10-09T00:24:07.561Z,93.57
2022-10-09T00:25:07.523Z,93.82
2022-10-09T00:26:07.536Z,94.19
2022-10-09T00:27:07.523Z,94.13
2022-10-09T00:28:07.549Z,93.51
2022-10-09T00:29:07.547Z,94.13
2022-10-09T00:30:07.517Z,94.03
2022-10-09T00:31:07.584Z,93.62
2022-10-09T00:32:07.517Z,93.51
2022-10-09T00:33:07.475Z,93.93
2022-10-09T00:34:07.472Z,93.30
2022-10-09T00:35:07.483Z,92.54
2022-10-09T00:36:07.461Z,92.58
2022-10-09T00:37:07.459Z,92.64
2022-10-09T00:38:07.468Z,92.33
2022-10-09T00:39:07.487Z,91.36
2022-10-09T00:40:07.432Z,90.84
2022-10-09T00:41:07.443Z,91.09
2022-10-09T00:42:07.429Z,91.20
2022-10-09T00:43:07.410Z,91.50
2022-10-09T00:44:07.417Z,91.24
2022-10-09T00:45:07.438Z,90.52
2022-10-09T00:46:07.447Z,92.32
2022-10-09T00:47:07.400Z,92.83
2022-10-09T00:48:07.387Z,93.04
2022-10-09T00:49:07.394Z,93.51
2022-10-09T00:50:07.374Z,93.10
2022-10-09T00:51:07.358Z,93.30
2022-10-09T00:52:07.393Z,93.35
2022-10-09T00:53:07.354Z,93.97
2022-10-09T00:54:07.351Z,94.18
2022-10-09T00:55:07.367Z,94.28
2022-10-09T00:56:07.342Z,94.07
2022-10-09T00:57:07.358Z,94.28
2022-10-09T00:58:07.326Z,94.07
2022-10-09T00:59:07.320Z,93.55
2022-10-09T01:00:07.321Z,94.28
2022-10-09T01:01:07.356Z,94.75
2022-10-09T01:02:07.352Z,94.28
2022-10-09T01:03:07.319Z,94.69
2022-10-09T01:04:07.308Z,95.10
2022-10-09T01:05:07.290Z,95.42
2022-10-09T01:06:07.282Z,95.83
2022-10-09T01:07:07.305Z,95.52
2022-10-09T01:08:07.271Z,95.52
2022-10-09T01:09:07.255Z,95.21
2022-10-09T01:10:07.246Z,95.21
2022-10-09T01:11:07.240Z,95.31
2022-10-09T01:12:07.259Z,95.00
2022-10-09T01:13:07.230Z,95.27
2022-10-09T01:14:07.246Z,95.21
2022-10-09T01:15:07.228Z,95.10
2022-10-09T01:16:07.270Z,94.90
2022-10-09T01:17:07.211Z,95.21
2022-10-09T01:18:07.205Z,95.10
2022-10-09T01:19:07.214Z,95.31
2022-10-09T01:20:07.191Z,95.21
2022-10-09T01:21:07.212Z,95.00
2022-10-09T01:22:07.182Z,94.90
2022-10-09T01:23:07.171Z,93.66
2022-10-09T01:24:07.190Z,93.60
2022-10-09T01:25:07.193Z,94.12
2022-10-09T01:26:07.173Z,94.68
2022-10-09T01:27:07.151Z,95.81
2022-10-09T01:28:07.213Z,96.33
2022-10-09T01:29:07.192Z,96.64
2022-10-09T01:30:07.133Z,96.85
2022-10-09T01:31:07.199Z,96.75
2022-10-09T01:32:07.115Z,95.87
2022-10-09T01:33:07.108Z,95.92
2022-10-09T01:34:07.120Z,96.54
2022-10-09T01:35:07.142Z,97.11
2022-10-09T01:36:07.128Z,96.91
2022-10-09T01:37:07.097Z,96.49
2022-10-09T01:38:07.092Z,96.80
2022-10-09T01:39:07.081Z,96.19
2022-10-09T01:40:07.098Z,96.49
2022-10-09T01:41:07.089Z,95.71
2022-10-09T01:42:07.086Z,95.04
2022-10-09T01:43:07.060Z,95.50
2022-10-09T01:44:07.064Z,94.98
2022-10-09T01:45:07.065Z,94.98
2022-10-09T01:46:07.077Z,95.44
2022-10-09T01:47:07.054Z,95.75
2022-10-09T01:48:07.065Z,96.73
2022-10-09T01:49:07.032Z,97.10
2022-10-09T01:50:07.026Z,96.83
2022-10-09T01:51:07.017Z,97.14
2022-10-09T01:52:07.008Z,97.04
2022-10-09T01:53:07.001Z,96.73
2022-10-09T01:54:07.026Z,96.62
2022-10-09T01:55:06.995Z,96.83
2022-10-09T01:56:07.011Z,97.14
2022-10-09T01:57:06.991Z,97.56
2022-10-09T01:58:06.975Z,97.83
2022-10-09T01:59:06.971Z,97.31
2022-10-09T02:00:06.993Z,97.20
2022-10-09T02:01:06.967Z,97.00
2022-10-09T02:02:07.134Z,96.79
2022-10-09T02:03:06.965Z,96.17
2022-10-09T02:04:06.941Z,94.62
2022-10-09T02:05:06.965Z,94.66
2022-10-09T02:06:06.937Z,94.97
2022-10-09T02:07:06.926Z,96.01
2022-10-09T02:08:06.928Z,97.25
2022-10-09T02:09:06.917Z,97.25
2022-10-09T02:10:06.913Z,96.52
2022-10-09T02:11:06.922Z,95.90
2022-10-09T02:12:06.901Z,97.14
2022-10-09T02:13:06.896Z,97.25
2022-10-09T02:14:06.895Z,97.66
2022-10-09T02:15:06.886Z,97.62
2022-10-09T02:16:06.972Z,97.31
2022-10-09T02:17:06.890Z,96.79
2022-10-09T02:18:06.875Z,96.79
2022-10-09T02:19:06.864Z,96.02
2022-10-09T02:20:06.851Z,95.34
2022-10-09T02:21:06.850Z,95.75
2022-10-09T02:22:06.840Z,96.17
2022-10-09T02:23:06.865Z,95.34
2022-10-09T02:24:06.868Z,96.33
2022-10-09T02:25:06.832Z,96.37
2022-10-09T02:26:06.849Z,96.27
2022-10-09T02:27:06.820Z,95.86
2022-10-09T02:28:06.885Z,96.17
2022-10-09T02:29:06.823Z,96.48
2022-10-09T02:30:06.862Z,95.96
2022-10-09T02:31:06.856Z,95.44
2022-10-09T02:32:06.791Z,95.44
2022-10-09T02:33:06.786Z,95.90
2022-10-09T02:34:06.783Z,95.80
2022-10-09T02:35:06.773Z,96.62
2022-10-09T02:36:06.793Z,96.83
2022-10-09T02:37:06.762Z,97.14
2022-10-09T02:38:06.758Z,97.56
2022-10-09T02:39:06.766Z,97.14
2022-10-09T02:40:10.577Z,96.62
2022-10-09T02:41:06.752Z,97.45
2022-10-09T02:42:06.789Z,97.66
2022-10-09T02:43:06.735Z,97.35
2022-10-09T02:44:06.721Z,97.00
2022-10-09T02:45:06.725Z,95.90
2022-10-09T02:46:06.743Z,95.39
2022-10-09T02:47:06.723Z,96.47
2022-10-09T02:48:06.732Z,97.71
2022-10-09T02:49:06.699Z,97.71
2022-10-09T02:50:06.708Z,97.71
2022-10-09T02:51:06.688Z,97.77
2022-10-09T02:52:06.686Z,97.71
2022-10-09T02:53:06.687Z,97.35
2022-10-09T02:54:06.693Z,96.83
2022-10-09T02:55:06.667Z,96.83
2022-10-09T02:56:06.665Z,95.70
2022-10-09T02:57:06.657Z,94.57
2022-10-09T02:58:06.663Z,93.68
2022-10-09T02:59:06.635Z,93.37
2022-10-09T03:00:06.657Z,93.16
2022-10-09T03:01:06.654Z,93.06
2022-10-09T03:02:06.817Z,93.68
2022-10-09T03:03:06.685Z,93.99
2022-10-09T03:04:06.633Z,94.10
2022-10-09T03:05:06.614Z,94.41
2022-10-09T03:06:06.646Z,94.24
2022-10-09T03:07:06.604Z,93.68
2022-10-09T03:08:06.600Z,93.41
2022-10-09T03:09:06.598Z,93.62
2022-10-09T03:10:06.585Z,94.18
2022-10-09T03:11:06.576Z,95.12
2022-10-09T03:12:06.597Z,95.43
2022-10-09T03:13:06.574Z,95.32
2022-10-09T03:14:06.594Z,94.91
2022-10-09T03:15:06.575Z,94.60
2022-10-09T03:16:06.613Z,94.70
2022-10-09T03:17:06.549Z,94.49
2022-10-09T03:18:06.538Z,94.49
2022-10-09T03:19:06.534Z,93.98
2022-10-09T03:20:06.548Z,93.56
2022-10-09T03:21:06.525Z,94.08
2022-10-09T03:22:06.518Z,94.18
2022-10-09T03:23:06.513Z,93.66
2022-10-09T03:24:06.523Z,93.40
2022-10-09T03:25:06.499Z,93.71
2022-10-09T03:26:06.532Z,94.02
2022-10-09T03:27:06.511Z,93.91
2022-10-09T03:28:06.525Z,93.50
2022-10-09T03:29:06.491Z,93.29
2022-10-09T03:30:06.478Z,93.50
2022-10-09T03:31:06.562Z,93.44
2022-10-09T03:32:06.575Z,93.96
2022-10-09T03:33:06.451Z,94.54
2022-10-09T03:34:06.452Z,94.12
2022-10-09T03:35:06.474Z,93.96
2022-10-09T03:36:06.451Z,93.96
2022-10-09T03:37:06.464Z,94.17
2022-10-09T03:38:06.448Z,94.37
2022-10-09T03:39:06.426Z,94.48
2022-10-09T03:40:06.438Z,94.73
2022-10-09T03:41:06.439Z,94.63
2022-10-09T03:42:06.414Z,95.10
2022-10-09T03:43:06.393Z,94.94
2022-10-09T03:44:06.400Z,94.94
2022-10-09T03:45:06.394Z,95.15
2022-10-09T03:46:06.412Z,95.00
2022-10-09T03:47:06.381Z,93.90
2022-10-09T03:48:06.386Z,93.90
2022-10-09T03:49:06.377Z,94.37
2022-10-09T03:50:06.372Z,94.27
2022-10-09T03:51:06.358Z,95.00
2022-10-09T03:52:06.382Z,94.95
2022-10-09T03:53:06.355Z,95.26
2022-10-09T03:54:06.349Z,95.16
2022-10-09T03:55:06.343Z,95.37
2022-10-09T03:56:06.335Z,95.78
2022-10-09T03:57:06.333Z,95.74
2022-10-09T03:58:06.351Z,95.95
2022-10-09T03:59:06.310Z,95.95
2022-10-09T04:00:06.319Z,95.64
2022-10-09T04:01:06.375Z,95.70
2022-10-09T04:02:06.339Z,95.53
2022-10-09T04:03:06.352Z,95.39
2022-10-09T04:04:06.328Z,95.74
2022-10-09T04:05:06.284Z,95.95
2022-10-09T04:06:06.285Z,95.74
2022-10-09T04:07:06.271Z,95.95
2022-10-09T04:08:06.267Z,96.15
2022-10-09T04:09:06.258Z,95.64
2022-10-09T04:10:06.281Z,95.80
2022-10-09T04:11:06.253Z,96.26
2022-10-09T04:12:06.247Z,96.05
2022-10-09T04:13:06.246Z,95.84
2022-10-09T04:14:06.238Z,96.15
2022-10-09T04:15:06.229Z,96.01
2022-10-09T04:16:06.266Z,95.59
2022-10-09T04:17:06.213Z,95.49
2022-10-09T04:18:06.216Z,95.70
2022-10-09T04:19:06.202Z,95.70
2022-10-09T04:20:06.201Z,95.70
2022-10-09T04:21:06.213Z,95.12
2022-10-09T04:22:06.187Z,95.53
2022-10-09T04:23:06.192Z,96.36
2022-10-09T04:24:06.178Z,96.98
2022-10-09T04:25:06.175Z,97.13
2022-10-09T04:26:06.169Z,96.09
2022-10-09T04:27:06.180Z,96.05
2022-10-09T04:28:06.223Z,95.43
2022-10-09T04:29:06.151Z,96.82
2022-10-09T04:30:06.168Z,96.82
2022-10-09T04:31:06.146Z,96.92
2022-10-09T04:32:06.139Z,97.24
2022-10-09T04:33:10.358Z,97.65
2022-10-09T04:34:06.131Z,97.34
2022-10-09T04:35:06.120Z,97.75
2022-10-09T04:36:06.139Z,97.24
2022-10-09T04:37:06.121Z,97.65
2022-10-09T04:38:06.131Z,97.55
2022-10-09T04:39:06.131Z,97.86
2022-10-09T04:40:06.137Z,97.03
2022-10-09T04:41:06.127Z,95.99
2022-10-09T04:42:06.114Z,95.99
2022-10-09T04:43:06.083Z,96.51
2022-10-09T04:44:06.093Z,97.17
2022-10-09T04:45:06.065Z,97.59
2022-10-09T04:46:06.115Z,97.34
2022-10-09T04:47:10.505Z,97.28
2022-10-09T04:48:07.069Z,96.97
2022-10-09T04:49:06.049Z,97.24
2022-10-09T04:50:06.075Z,96.76
2022-10-09T04:51:06.034Z,97.49
2022-10-09T04:52:06.042Z,96.97
2022-10-09T04:53:06.055Z,97.17
2022-10-09T04:54:06.022Z,97.69
2022-10-09T04:55:06.038Z,99.09
2022-10-09T04:56:06.006Z,99.30
2022-10-09T04:57:05.997Z,99.56
2022-10-09T04:58:06.005Z,99.66
2022-10-09T04:59:05.990Z,99.25
2022-10-09T05:00:06.010Z,99.15
2022-10-09T05:01:06.033Z,99.15
2022-10-09T05:02:06.004Z,98.94
2022-10-09T05:03:05.969Z,97.59
2022-10-09T05:04:05.978Z,96.86
2022-10-09T05:05:05.956Z,96.76
2022-10-09T05:06:05.977Z,97.53
2022-10-09T05:07:05.949Z,98.78
2022-10-09T05:08:05.964Z,98.99
2022-10-09T05:09:05.956Z,98.68
2022-10-09T05:10:05.939Z,98.21
2022-10-09T05:11:05.930Z,98.57
2022-10-09T05:12:05.930Z,98.88
2022-10-09T05:13:05.944Z,98.73
2022-10-09T05:14:05.940Z,98.88
2022-10-09T05:15:05.914Z,98.99
2022-10-09T05:16:05.991Z,98.83
2022-10-09T05:17:14.018Z,99.35
2022-10-09T05:18:06.887Z,99.25
2022-10-09T05:19:05.888Z,99.15
2022-10-09T05:20:05.877Z,98.73
2022-10-09T05:21:05.870Z,98.63
2022-10-09T05:22:05.886Z,98.99
2022-10-09T05:23:05.864Z,98.83
2022-10-09T05:24:10.122Z,98.63
2022-10-09T05:25:05.858Z,98.63
2022-10-09T05:26:05.851Z,98.83
2022-10-09T05:27:05.861Z,98.52
2022-10-09T05:28:05.991Z,99.15
2022-10-09T05:29:05.830Z,97.59
2022-10-09T05:30:05.825Z,97.80
2022-10-09T05:31:05.824Z,97.59
2022-10-09T05:32:05.877Z,97.80
2022-10-09T05:33:05.809Z,96.86
2022-10-09T05:34:05.804Z,96.76
2022-10-09T05:35:05.791Z,96.97
2022-10-09T05:36:05.792Z,97.07
2022-10-09T05:37:05.790Z,96.45
2022-10-09T05:38:05.841Z,96.86
2022-10-09T05:39:05.778Z,95.93
2022-10-09T05:40:05.772Z,95.72
2022-10-09T05:41:05.762Z,95.83
2022-10-09T05:42:05.763Z,95.72
2022-10-09T05:43:05.756Z,96.24
2022-10-09T05:44:05.779Z,95.87
2022-10-09T05:45:05.753Z,96.19
2022-10-09T05:46:05.824Z,97.85
2022-10-09T05:47:05.734Z,98.16
2022-10-09T05:48:05.763Z,97.85
2022-10-09T05:49:05.724Z,97.33
2022-10-09T05:50:05.737Z,97.02
2022-10-09T05:51:05.709Z,96.50
2022-10-09T05:52:05.713Z,96.81
2022-10-09T05:53:05.703Z,98.26
2022-10-09T05:54:05.702Z,98.68
2022-10-09T05:55:05.711Z,98.93
2022-10-09T05:56:05.695Z,98.78
2022-10-09T05:57:05.690Z,98.99
2022-10-09T05:58:05.719Z,98.26
2022-10-09T05:59:05.671Z,97.85
2022-10-09T06:00:05.698Z,97.80
2022-10-09T06:01:05.715Z,97.59
2022-10-09T06:02:05.711Z,96.97
2022-10-09T06:03:05.649Z,96.14
2022-10-09T06:04:05.648Z,97.33
2022-10-09T06:05:05.643Z,97.07
2022-10-09T06:06:05.682Z,97.74
2022-10-09T06:07:05.624Z,98.36
2022-10-09T06:08:05.624Z,97.49
2022-10-09T06:09:05.615Z,96.97
2022-10-09T06:10:05.614Z,97.49
2022-10-09T06:11:05.615Z,97.80
2022-10-09T06:12:05.627Z,97.59
2022-10-09T06:13:05.599Z,96.76
2022-10-09T06:14:05.609Z,97.44
2022-10-09T06:15:05.597Z,96.51
2022-10-09T06:16:05.583Z,97.03
2022-10-09T06:17:05.664Z,96.36
2022-10-09T06:18:05.586Z,95.74
2022-10-09T06:19:05.573Z,95.84
2022-10-09T06:20:05.573Z,94.95
2022-10-09T06:21:05.564Z,94.95
2022-10-09T06:22:05.550Z,95.20
2022-10-09T06:23:05.542Z,95.72
2022-10-09T06:24:12.571Z,95.16
2022-10-09T06:25:05.543Z,94.43
2022-10-09T06:26:05.544Z,94.58
2022-10-09T06:27:05.518Z,95.16
2022-10-09T06:28:05.535Z,95.57
2022-10-09T06:29:05.518Z,95.26
2022-10-09T06:30:05.526Z,95.26
2022-10-09T06:31:05.743Z,94.43
2022-10-09T06:32:05.489Z,93.91
2022-10-09T06:33:05.499Z,94.37
2022-10-09T06:34:05.491Z,95.46
2022-10-09T06:35:05.476Z,95.51
2022-10-09T06:36:10.024Z,96.08
2022-10-09T06:37:05.472Z,96.14
2022-10-09T06:38:05.456Z,95.41
2022-10-09T06:39:05.481Z,95.83
2022-10-09T06:40:05.469Z,95.10
2022-10-09T06:41:05.453Z,94.79
2022-10-09T06:42:05.489Z,95.51
2022-10-09T06:43:05.434Z,95.31
2022-10-09T06:44:05.427Z,95.72
2022-10-09T06:45:05.426Z,95.51
2022-10-09T06:46:05.481Z,94.17
2022-10-09T06:47:05.437Z,95.20
2022-10-09T06:48:05.405Z,95.87
2022-10-09T06:49:05.403Z,95.62
2022-10-09T06:50:05.394Z,94.89
2022-10-09T06:51:05.713Z,95.72
2022-10-09T06:52:05.386Z,95.51
2022-10-09T06:53:05.400Z,95.20
2022-10-09T06:54:05.383Z,95.83
2022-10-09T06:55:05.410Z,94.74
2022-10-09T06:56:05.370Z,94.12
2022-10-09T06:57:05.379Z,94.23
2022-10-09T06:58:05.381Z,94.85
2022-10-09T06:59:05.367Z,94.43
2022-10-09T07:00:05.331Z,93.56
2022-10-09T07:01:05.402Z,92.74
2022-10-09T07:02:05.396Z,92.94
2022-10-09T07:03:05.409Z,93.19
2022-10-09T07:04:05.345Z,94.12
2022-10-09T07:05:05.340Z,95.16
2022-10-09T07:06:05.310Z,95.37
2022-10-09T07:07:05.313Z,95.32
2022-10-09T07:08:05.298Z,95.12
2022-10-09T07:09:05.297Z,94.49
2022-10-09T07:10:05.306Z,93.77
2022-10-09T07:11:05.282Z,93.56
2022-10-09T07:12:05.277Z,93.25
2022-10-09T07:13:05.268Z,92.43
2022-10-09T07:14:05.261Z,93.25
2022-10-09T07:15:05.272Z,93.15
2022-10-09T07:16:05.303Z,93.56
2022-10-09T07:17:05.251Z,94.54
2022-10-09T07:18:05.238Z,95.22
2022-10-09T07:19:05.240Z,96.09
2022-10-09T07:20:05.228Z,96.15
2022-10-09T07:21:05.245Z,95.43
2022-10-09T07:22:05.236Z,95.18
2022-10-09T07:23:05.218Z,94.45
2022-10-09T07:24:05.227Z,93.93
2022-10-09T07:25:05.209Z,93.68
2022-10-09T07:26:05.205Z,94.41
2022-10-09T07:27:05.212Z,93.58
2022-10-09T07:28:05.406Z,92.71
2022-10-09T07:29:05.183Z,92.50
2022-10-09T07:30:05.180Z,91.67
2022-10-09T07:31:05.237Z,91.88
2022-10-09T07:32:10.238Z,92.40
2022-10-09T07:33:05.163Z,91.88
2022-10-09T07:34:05.150Z,92.19
2022-10-09T07:35:05.169Z,92.46
2022-10-09T07:36:05.133Z,91.11
2022-10-09T07:37:05.136Z,90.97
2022-10-09T07:38:05.140Z,90.29
2022-10-09T07:39:05.142Z,91.07
2022-10-09T07:40:05.214Z,90.97
2022-10-09T07:41:05.125Z,90.56
2022-10-09T07:42:05.119Z,91.55
2022-10-09T07:43:05.111Z,91.13
2022-10-09T07:44:05.136Z,91.13
2022-10-09T07:45:05.094Z,89.03
2022-10-09T07:46:05.181Z,89.44
2022-10-09T07:47:05.104Z,89.75
2022-10-09T07:48:05.069Z,90.37
2022-10-09T07:49:05.073Z,89.81
2022-10-09T07:50:05.061Z,89.29
2022-10-09T07:51:05.073Z,88.78
2022-10-09T07:52:05.078Z,89.23
2022-10-09T07:53:05.052Z,89.23
2022-10-09T07:54:05.035Z,88.89
2022-10-09T07:55:05.026Z,89.61
2022-10-09T07:56:05.036Z,88.06
2022-10-09T07:57:05.029Z,88.78
2022-10-09T07:58:05.033Z,88.89
2022-10-09T07:59:05.006Z,87.95
2022-10-09T08:00:05.002Z,88.16
2022-10-09T08:01:05.097Z,87.44
2022-10-09T08:02:05.095Z,87.65
2022-10-09T08:03:05.058Z,87.44
2022-10-09T08:04:04.978Z,88.89
2022-10-09T08:05:05.017Z,89.29
2022-10-09T08:06:04.975Z,88.74
2022-10-09T08:07:04.968Z,88.12
2022-10-09T08:08:04.956Z,87.81
2022-10-09T08:09:04.967Z,88.22
2022-10-09T08:10:04.946Z,88.70
2022-10-09T08:11:04.971Z,87.63
2022-10-09T08:12:04.934Z,86.18
2022-10-09T08:13:04.928Z,85.77
2022-10-09T08:14:04.931Z,87.56
2022-10-09T08:15:04.924Z,89.01
2022-10-09T08:16:05.006Z,87.21
2022-10-09T08:17:04.944Z,87.32
2022-10-09T08:18:04.911Z,85.73
2022-10-09T08:19:04.907Z,86.24
2022-10-09T08:20:04.891Z,86.10
2022-10-09T08:21:04.902Z,85.55
2022-10-09T08:22:04.883Z,83.28
2022-10-09T08:23:04.904Z,85.34
2022-10-09T08:24:04.901Z,84.31
2022-10-09T08:25:04.879Z,84.31
2022-10-09T08:26:04.866Z,85.30
2022-10-09T08:27:04.862Z,84.89
2022-10-09T08:28:04.962Z,85.41
2022-10-09T08:29:04.852Z,84.64
2022-10-09T08:30:04.864Z,83.78
2022-10-09T08:31:04.974Z,84.20
2022-10-09T08:32:04.831Z,83.78
2022-10-09T08:33:04.841Z,83.03
2022-10-09T08:34:04.872Z,81.69
2022-10-09T08:35:04.829Z,81.45
2022-10-09T08:36:04.815Z,81.86
2022-10-09T08:37:04.814Z,81.14
2022-10-09T08:38:04.793Z,81.18
2022-10-09T08:39:04.800Z,80.63
2022-10-09T08:40:04.804Z,80.73
2022-10-09T08:41:04.772Z,81.41
2022-10-09T08:42:04.775Z,81.68
2022-10-09T08:43:04.779Z,81.57
2022-10-09T08:44:04.770Z,79.69
2022-10-09T08:45:04.753Z,79.49
2022-10-09T08:46:04.870Z,78.42
2022-10-09T08:47:04.750Z,78.05
2022-10-09T08:48:04.741Z,75.45
2022-10-09T08:49:04.741Z,75.04
2022-10-09T08:50:04.748Z,75.07
2022-10-09T08:51:04.727Z,75.28
2022-10-09T08:52:04.711Z,75.14
2022-10-09T08:53:04.705Z,74.97
2022-10-09T08:54:04.695Z,73.27
2022-10-09T08:55:04.720Z,72.41
2022-10-09T08:56:04.692Z,69.62
2022-10-09T08:57:04.694Z,70.27
2022-10-09T08:58:04.677Z,70.00
2022-10-09T08:59:04.683Z,68.41
2022-10-09T09:00:04.675Z,66.47
2022-10-09T09:01:04.655Z,65.19
2022-10-09T09:02:04.723Z,64.01
2022-10-09T09:03:04.671Z,62.16
2022-10-09T09:04:04.637Z,61.08
2022-10-09T09:05:04.647Z,59.63
2022-10-09T09:06:04.629Z,59.48
2022-10-09T09:07:04.637Z,58.48
2022-10-09T09:08:04.627Z,57.01
2022-10-09T09:09:04.626Z,54.91
2022-10-09T09:10:04.667Z,54.08
2022-10-09T09:11:04.589Z,54.46
2022-10-09T09:12:04.582Z,53.30
2022-10-09T09:13:04.572Z,51.38
2022-10-09T09:14:04.565Z,51.73
2022-10-09T09:15:04.581Z,51.29
2022-10-09T09:16:04.642Z,49.15
2022-10-09T09:17:04.551Z,49.91
2022-10-09T09:18:04.548Z,48.55
2022-10-09T09:19:04.527Z,45.70
2022-10-09T09:20:04.556Z,46.18
2022-10-09T09:21:04.565Z,46.78
2022-10-09T09:22:04.513Z,45.62
2022-10-09T09:23:04.541Z,41.82
2022-10-09T09:24:04.492Z,45.12
2022-10-09T09:25:04.478Z,43.19
2022-10-09T09:26:04.466Z,44.67
2022-10-09T09:27:04.482Z,43.25
2022-10-09T09:28:07.678Z,42.25
2022-10-09T09:29:04.441Z,44.27
2022-10-09T09:30:04.447Z,45.55
2022-10-09T09:31:04.469Z,45.10
2022-10-09T09:32:04.409Z,41.67
2022-10-09T09:33:04.444Z,41.16
2022-10-09T09:34:04.423Z,39.66
2022-10-09T09:35:04.421Z,41.28
2022-10-09T09:36:04.405Z,41.58
2022-10-09T09:37:04.377Z,39.92
2022-10-09T09:38:04.371Z,43.43
2022-10-09T09:40:35.559Z,42.40
2022-10-09T09:41:05.342Z,42.77
2022-10-09T09:42:04.328Z,42.27
2022-10-09T09:43:05.142Z,42.10
2022-10-09T09:44:04.331Z,41.16
2022-10-09T09:45:04.314Z,42.45
2022-10-09T09:46:04.288Z,42.83
2022-10-09T09:47:04.288Z,42.23
2022-10-09T09:48:04.291Z,41.53
2022-10-09T09:49:09.259Z,44.72
2022-10-09T09:50:04.275Z,42.55
2022-10-09T09:51:27.036Z,41.55
2022-10-09T09:52:05.240Z,42.25
2022-10-09T09:53:04.235Z,41.16
2022-10-09T09:54:04.217Z,44.61
2022-10-09T09:55:04.240Z,44.59
2022-10-09T09:56:04.197Z,47.22
2022-10-09T09:57:14.916Z,47.02
2022-10-09T09:58:05.190Z,45.31
2022-10-09T09:59:04.188Z,46.68
2022-10-09T10:00:04.164Z,47.88
2022-10-09T10:01:04.277Z,46.91
2022-10-09T10:02:04.251Z,48.03
2022-10-09T10:03:04.164Z,51.14
2022-10-09T10:04:04.125Z,51.06
2022-10-09T10:05:04.137Z,51.59
2022-10-09T10:06:04.130Z,50.51
2022-10-09T10:07:04.103Z,53.34
2022-10-09T10:08:04.104Z,50.84
2022-10-09T10:09:04.089Z,53.37
2022-10-09T10:10:04.079Z,52.29
2022-10-09T10:11:04.098Z,52.64
2022-10-09T10:12:04.073Z,54.99
2022-10-09T10:13:04.054Z,53.50
2022-10-09T10:14:04.034Z,55.14
2022-10-09T10:15:04.031Z,55.54
2022-10-09T10:16:04.070Z,56.75
2022-10-09T10:17:04.040Z,56.15
2022-10-09T10:18:04.028Z,56.68
2022-10-09T10:19:04.312Z,57.10
2022-10-09T10:20:03.997Z,56.81
2022-10-09T10:21:03.997Z,58.62
2022-10-09T10:22:04.000Z,57.89
2022-10-09T10:23:03.969Z,58.69
2022-10-09T10:24:03.965Z,57.28
2022-10-09T10:25:03.952Z,57.89
2022-10-09T10:26:03.935Z,57.48
2022-10-09T10:27:03.933Z,58.52
2022-10-09T10:28:03.980Z,58.19
2022-10-09T10:29:03.928Z,59.09
2022-10-09T10:30:03.922Z,57.89
2022-10-09T10:31:03.942Z,57.89
2022-10-09T10:32:03.890Z,58.19
2022-10-09T10:33:03.949Z,58.29
2022-10-09T10:34:03.874Z,58.36
2022-10-09T10:35:03.865Z,58.36
2022-10-09T10:36:03.861Z,58.14
2022-10-09T10:37:03.852Z,57.86
2022-10-09T10:38:03.838Z,58.76
2022-10-09T10:39:03.851Z,59.30
2022-10-09T10:40:03.816Z,59.30
2022-10-09T10:41:03.824Z,59.17
2022-10-09T10:42:03.801Z,56.85
2022-10-09T10:43:03.791Z,57.25
2022-10-09T10:44:03.794Z,58.16
2022-10-09T10:45:03.764Z,58.64
2022-10-09T10:46:03.768Z,58.94
2022-10-09T10:47:03.766Z,60.08
2022-10-09T10:48:03.757Z,61.66
2022-10-09T10:49:03.754Z,58.14
2022-10-09T10:50:03.729Z,56.32
2022-10-09T10:51:03.724Z,56.90
2022-10-09T10:52:03.708Z,56.60
2022-10-09T10:53:03.707Z,56.29
2022-10-09T10:54:03.698Z,56.60
2022-10-09T10:55:03.711Z,54.41
2022-10-09T10:56:05.405Z,54.13
2022-10-09T10:57:03.675Z,55.62
2022-10-09T10:58:03.674Z,56.49
2022-10-09T10:59:03.655Z,54.46
2022-10-09T11:00:03.638Z,50.02
2022-10-09T11:01:03.671Z,52.34
2022-10-09T11:02:03.655Z,54.48
2022-10-09T11:03:03.729Z,53.27
2022-10-09T11:04:03.621Z,53.47
2022-10-09T11:05:03.607Z,53.27
2022-10-09T11:06:03.607Z,51.23
2022-10-09T11:07:03.592Z,51.71
2022-10-09T11:08:03.620Z,52.31
2022-10-09T11:09:03.566Z,52.31
2022-10-09T11:10:03.559Z,51.59
2022-10-09T11:11:03.570Z,50.91
2022-10-09T11:12:03.547Z,50.31
2022-10-09T11:13:04.014Z,49.98
2022-10-09T11:14:03.543Z,48.97
2022-10-09T11:15:03.514Z,49.30
2022-10-09T11:16:03.584Z,51.41
2022-10-09T11:17:03.505Z,49.98
2022-10-09T11:18:03.488Z,49.76
2022-10-09T11:19:03.510Z,48.67
2022-10-09T11:20:03.485Z,49.76
2022-10-09T11:21:03.474Z,49.73
2022-10-09T11:22:03.468Z,48.93
2022-10-09T11:23:03.459Z,49.05
2022-10-09T11:24:03.432Z,49.53
2022-10-09T11:25:03.475Z,49.55
2022-10-09T11:26:03.449Z,49.95
2022-10-09T11:27:03.866Z,49.02
2022-10-09T11:28:03.515Z,48.93
2022-10-09T11:29:03.400Z,49.13
2022-10-09T11:30:03.403Z,51.26
2022-10-09T11:31:03.422Z,52.04
2022-10-09T11:32:03.485Z,52.94
2022-10-09T11:33:03.393Z,48.83
2022-10-09T11:34:03.358Z,48.25
2022-10-09T11:35:03.347Z,48.22
2022-10-09T11:36:03.347Z,47.90
2022-10-09T11:37:03.368Z,47.50
2022-10-09T11:38:03.339Z,45.91
2022-10-09T11:39:03.321Z,47.04
2022-10-09T11:40:03.325Z,48.27
2022-10-09T11:41:06.496Z,49.15
2022-10-09T11:42:03.294Z,48.05
2022-10-09T11:43:03.350Z,47.62
2022-10-09T11:44:03.288Z,47.22
2022-10-09T11:45:03.289Z,46.72
2022-10-09T11:46:03.354Z,46.11
2022-10-09T11:47:04.748Z,47.00
2022-10-09T11:48:03.239Z,48.10
2022-10-09T11:49:03.239Z,48.90
2022-10-09T11:50:03.269Z,47.42
2022-10-09T11:51:03.225Z,47.22
2022-10-09T11:52:03.215Z,47.42
2022-10-09T11:53:03.250Z,47.70
2022-10-09T11:54:03.204Z,48.93
2022-10-09T11:55:03.184Z,50.86
2022-10-09T11:56:03.183Z,47.85
2022-10-09T11:57:05.959Z,49.25
2022-10-09T11:58:03.149Z,48.55
2022-10-09T11:59:03.175Z,49.55
2022-10-09T12:00:03.161Z,49.45
2022-10-09T12:01:03.180Z,49.27
2022-10-09T12:02:03.167Z,49.07
2022-10-09T12:03:03.126Z,48.67
2022-10-09T12:04:03.098Z,46.48
2022-10-09T12:05:03.124Z,47.99
2022-10-09T12:06:03.111Z,48.29
2022-10-09T12:07:03.081Z,48.27
2022-10-09T12:08:03.099Z,48.77
2022-10-09T12:09:03.056Z,47.36
2022-10-09T12:10:03.058Z,48.97
2022-10-09T12:11:03.046Z,49.27
2022-10-09T12:12:03.026Z,49.10
2022-10-09T12:13:03.057Z,50.81
2022-10-09T12:14:03.050Z,51.01
2022-10-09T12:15:03.031Z,49.90
2022-10-09T12:16:03.030Z,51.31
2022-10-09T12:17:03.040Z,49.07
2022-10-09T12:18:03.013Z,48.19
2022-10-09T12:19:02.973Z,48.77
2022-10-09T12:20:02.982Z,48.27
2022-10-09T12:21:02.964Z,48.27
2022-10-09T12:22:02.961Z,48.07
2022-10-09T12:23:30.182Z,47.79
2022-10-09T12:24:03.930Z,47.89
2022-10-09T12:25:02.927Z,45.67
2022-10-09T12:26:09.928Z,50.51
2022-10-09T12:27:02.910Z,47.89
2022-10-09T12:28:02.971Z,47.41
2022-10-09T12:29:02.889Z,48.32
2022-10-09T12:30:02.906Z,46.20
2022-10-09T12:31:02.910Z,46.28
2022-10-09T12:32:02.858Z,46.78
2022-10-09T12:33:02.858Z,47.19
2022-10-09T12:34:02.880Z,45.45
2022-10-09T12:35:02.866Z,45.65
2022-10-09T12:36:02.848Z,46.78
2022-10-09T12:37:02.832Z,46.26
2022-10-09T12:38:02.815Z,47.19
2022-10-09T12:39:02.815Z,46.28
2022-10-09T12:40:02.833Z,45.19
2022-10-09T12:41:02.793Z,47.20
2022-10-09T12:42:02.790Z,46.78
2022-10-09T12:43:02.775Z,48.19
2022-10-09T12:44:02.784Z,46.78
2022-10-09T12:45:02.795Z,45.87
2022-10-09T12:46:02.808Z,46.78
2022-10-09T12:47:02.743Z,46.18
2022-10-09T12:48:02.747Z,44.07
2022-10-09T12:49:02.727Z,47.39
2022-10-09T12:50:02.711Z,47.59
2022-10-09T12:51:02.737Z,47.49
2022-10-09T12:52:02.737Z,48.79
2022-10-09T12:53:02.692Z,48.19